sensor_id;sensor_type;location;lat;lon;timestamp;pressure;altitude;pressure_sealevel;temperature;humidity
48800;BME280;34611;47.964;7.982;2023-02-23T00:05:39;96462.34;;;10.22;58.76
48800;BME280;34611;47.964;7.982;2023-02-23T00:12:40;96464.28;;;10.20;58.94
48800;BME280;34611;47.964;7.982;2023-02-23T00:19:40;96463.97;;;10.23;58.91
48800;BME280;34611;47.964;7.982;2023-02-23T00:26:42;96464.13;;;10.21;58.78
48800;BME280;34611;47.964;7.982;2023-02-23T00:33:44;96457.16;;;10.22;58.83
48800;BME280;34611;47.964;7.982;2023-02-23T00:40:45;96451.16;;;10.21;59.03
48800;BME280;34611;47.964;7.982;2023-02-23T00:47:45;96455.50;;;10.21;58.89
48800;BME280;34611;47.964;7.982;2023-02-23T00:54:47;96459.75;;;10.22;58.96
48800;BME280;34611;47.964;7.982;2023-02-23T01:01:48;96455.50;;;10.21;58.89
48800;BME280;34611;47.964;7.982;2023-02-23T01:08:49;96444.16;;;10.22;58.91
48800;BME280;34611;47.964;7.982;2023-02-23T01:15:50;96444.16;;;10.22;59.06
48800;BME280;34611;47.964;7.982;2023-02-23T01:22:51;96446.78;;;10.22;59.03
48800;BME280;34611;47.964;7.982;2023-02-23T01:29:52;96437.19;;;10.22;58.96
48800;BME280;34611;47.964;7.982;2023-02-23T01:36:53;96437.19;;;10.22;59.22
48800;BME280;34611;47.964;7.982;2023-02-23T01:43:58;96441.56;;;10.22;59.17
48800;BME280;34611;47.964;7.982;2023-02-23T01:58:04;96432.00;;;10.22;59.17
48800;BME280;34611;47.964;7.982;2023-02-23T02:05:04;96426.81;;;10.22;59.12
48800;BME280;34611;47.964;7.982;2023-02-23T02:12:12;96431.19;;;10.22;59.35
48800;BME280;34611;47.964;7.982;2023-02-23T02:26:30;96415.59;;;10.22;59.28
48800;BME280;34611;47.964;7.982;2023-02-23T02:40:40;96395.63;;;10.22;59.42
48800;BME280;34611;47.964;7.982;2023-02-23T02:55:00;96400.81;;;10.22;59.18
48800;BME280;34611;47.964;7.982;2023-02-23T03:02:04;96390.44;;;10.22;59.16
48800;BME280;34611;47.964;7.982;2023-02-23T03:24:30;96390.44;;;10.22;59.58
48800;BME280;34611;47.964;7.982;2023-02-23T03:31:57;96394.69;;;10.23;59.37
48800;BME280;34611;47.964;7.982;2023-02-23T03:39:24;96396.44;;;10.23;59.34
48800;BME280;34611;47.964;7.982;2023-02-23T03:46:44;96392.09;;;10.23;59.54
48800;BME280;34611;47.964;7.982;2023-02-23T03:54:17;96391.25;;;10.23;59.38
48800;BME280;34611;47.964;7.982;2023-02-23T04:01:38;96388.66;;;10.23;59.35
48800;BME280;34611;47.964;7.982;2023-02-23T04:08:58;96382.50;;;10.24;59.35
48800;BME280;34611;47.964;7.982;2023-02-23T04:16:19;96384.44;;;10.22;59.39
48800;BME280;34611;47.964;7.982;2023-02-23T04:23:19;96386.91;;;10.23;59.44
48800;BME280;34611;47.964;7.982;2023-02-23T04:30:22;96389.50;;;10.23;59.40
48800;BME280;34611;47.964;7.982;2023-02-23T04:37:27;96388.66;;;10.23;59.60
48800;BME280;34611;47.964;7.982;2023-02-23T04:44:27;96381.69;;;10.23;59.40
48800;BME280;34611;47.964;7.982;2023-02-23T04:51:28;96386.06;;;10.23;59.49
48800;BME280;34611;47.964;7.982;2023-02-23T04:58:31;96390.31;;;10.24;59.66
48800;BME280;34611;47.964;7.982;2023-02-23T05:05:31;96386.75;;;10.25;59.59
48800;BME280;34611;47.964;7.982;2023-02-23T05:12:31;96374.72;;;10.24;59.49
48800;BME280;34611;47.964;7.982;2023-02-23T05:19:32;96379.09;;;10.23;59.50
48800;BME280;34611;47.964;7.982;2023-02-23T05:26:32;96376.50;;;10.23;59.54
48800;BME280;34611;47.964;7.982;2023-02-23T05:33:33;96381.53;;;10.25;59.57
48800;BME280;34611;47.964;7.982;2023-02-23T05:40:34;96380.72;;;10.24;59.65
48800;BME280;34611;47.964;7.982;2023-02-23T05:47:35;96379.91;;;10.24;59.56
48800;BME280;34611;47.964;7.982;2023-02-23T05:54:37;96386.75;;;10.25;59.74
48800;BME280;34611;47.964;7.982;2023-02-23T06:01:37;96382.50;;;10.24;59.65
48800;BME280;34611;47.964;7.982;2023-02-23T06:08:38;96389.34;;;10.25;59.69
48800;BME280;34611;47.964;7.982;2023-02-23T06:15:38;96394.53;;;10.25;59.53
48800;BME280;34611;47.964;7.982;2023-02-23T06:22:39;96394.53;;;10.25;59.64
48800;BME280;34611;47.964;7.982;2023-02-23T06:29:39;96399.72;;;10.25;59.81
48800;BME280;34611;47.964;7.982;2023-02-23T06:36:39;96407.50;;;10.25;59.85
48800;BME280;34611;47.964;7.982;2023-02-23T06:43:40;96410.13;;;10.25;59.59
48800;BME280;34611;47.964;7.982;2023-02-23T06:50:40;96410.13;;;10.25;59.76
48800;BME280;34611;47.964;7.982;2023-02-23T06:57:41;96414.50;;;10.24;59.63
48800;BME280;34611;47.964;7.982;2023-02-23T07:04:43;96430.91;;;10.25;59.69
48800;BME280;34611;47.964;7.982;2023-02-23T07:11:43;96439.66;;;10.24;59.74
48800;BME280;34611;47.964;7.982;2023-02-23T07:18:43;96443.88;;;10.25;59.70
48800;BME280;34611;47.964;7.982;2023-02-23T07:25:44;96446.47;;;10.25;59.94
48800;BME280;34611;47.964;7.982;2023-02-23T07:32:44;96447.31;;;10.25;59.71
48800;BME280;34611;47.964;7.982;2023-02-23T07:39:44;96442.25;;;10.24;59.80
48800;BME280;34611;47.964;7.982;2023-02-23T07:46:45;96447.44;;;10.24;59.88
48800;BME280;34611;47.964;7.982;2023-02-23T07:53:45;96443.06;;;10.24;59.97
48800;BME280;34611;47.964;7.982;2023-02-23T08:00:46;96439.66;;;10.24;60.03
48800;BME280;34611;47.964;7.982;2023-02-23T08:07:46;96441.28;;;10.25;60.04
48800;BME280;34611;47.964;7.982;2023-02-23T08:14:46;96449.06;;;10.25;59.89
48800;BME280;34611;47.964;7.982;2023-02-23T08:21:47;96450.72;;;10.26;59.91
48800;BME280;34611;47.964;7.982;2023-02-23T08:28:51;96451.69;;;10.25;59.93
48800;BME280;34611;47.964;7.982;2023-02-23T08:35:51;96451.69;;;10.25;59.96
48800;BME280;34611;47.964;7.982;2023-02-23T08:42:52;96457.72;;;10.25;59.89
48800;BME280;34611;47.964;7.982;2023-02-23T08:49:52;96451.69;;;10.25;59.90
48800;BME280;34611;47.964;7.982;2023-02-23T08:56:55;96451.69;;;10.25;59.94
48800;BME280;34611;47.964;7.982;2023-02-23T09:03:57;96448.28;;;10.24;60.02
48800;BME280;34611;47.964;7.982;2023-02-23T09:10:58;96451.69;;;10.25;60.09
48800;BME280;34611;47.964;7.982;2023-02-23T09:17:59;96457.72;;;10.25;60.21
48800;BME280;34611;47.964;7.982;2023-02-23T09:24:59;96456.06;;;10.24;60.23
48800;BME280;34611;47.964;7.982;2023-02-23T09:31:59;96461.25;;;10.24;59.96
48800;BME280;34611;47.964;7.982;2023-02-23T09:38:59;96463.72;;;10.26;59.96
48800;BME280;34611;47.964;7.982;2023-02-23T10:00:28;96452.53;;;10.25;60.21
48800;BME280;34611;47.964;7.982;2023-02-23T10:21:55;96445.66;;;10.24;60.37
48800;BME280;34611;47.964;7.982;2023-02-23T10:28:57;96443.88;;;10.25;60.32
48800;BME280;34611;47.964;7.982;2023-02-23T10:35:59;96436.94;;;10.25;60.15
48800;BME280;34611;47.964;7.982;2023-02-23T10:43:04;96427.34;;;10.26;60.38
48800;BME280;34611;47.964;7.982;2023-02-23T10:50:04;96422.16;;;10.26;60.44
48800;BME280;34611;47.964;7.982;2023-02-23T10:57:06;96432.56;;;10.26;60.30
48800;BME280;34611;47.964;7.982;2023-02-23T11:04:23;96422.16;;;10.26;60.50
48800;BME280;34611;47.964;7.982;2023-02-23T11:11:25;96419.56;;;10.26;60.30
48800;BME280;34611;47.964;7.982;2023-02-23T11:18:27;96417.91;;;10.25;60.50
48800;BME280;34611;47.964;7.982;2023-02-23T11:25:28;96422.16;;;10.26;60.41
48800;BME280;34611;47.964;7.982;2023-02-23T11:32:30;96417.66;;;10.28;60.48
48800;BME280;34611;47.964;7.982;2023-02-23T11:39:31;96409.16;;;10.26;60.32
48800;BME280;34611;47.964;7.982;2023-02-23T11:46:34;96413.56;;;10.25;60.58
48800;BME280;34611;47.964;7.982;2023-02-23T12:00:35;96397.00;;;10.26;60.42
48800;BME280;34611;47.964;7.982;2023-02-23T12:14:47;96397.00;;;10.26;60.72
48800;BME280;34611;47.964;7.982;2023-02-23T12:21:58;96403.00;;;10.27;60.74
48800;BME280;34611;47.964;7.982;2023-02-23T12:29:03;96396.06;;;10.27;60.60
48800;BME280;34611;47.964;7.982;2023-02-23T12:50:10;96382.22;;;10.27;60.60
48800;BME280;34611;47.964;7.982;2023-02-23T13:18:46;96383.06;;;10.27;60.88
48800;BME280;34611;47.964;7.982;2023-02-23T13:25:51;96377.88;;;10.27;60.89
48800;BME280;34611;47.964;7.982;2023-02-23T13:32:56;96370.22;;;10.26;60.71
48800;BME280;34611;47.964;7.982;2023-02-23T13:40:58;96364.03;;;10.27;60.80
48800;BME280;34611;47.964;7.982;2023-02-23T13:47:32;96370.22;;;10.26;60.88
48800;BME280;34611;47.964;7.982;2023-02-23T13:54:37;96366.63;;;10.27;60.81
48800;BME280;34611;47.964;7.982;2023-02-23T14:01:49;96363.09;;;10.28;60.76
48800;BME280;34611;47.964;7.982;2023-02-23T14:08:51;96367.47;;;10.27;60.75
48800;BME280;34611;47.964;7.982;2023-02-23T14:16:15;96362.28;;;10.27;60.98
48800;BME280;34611;47.964;7.982;2023-02-23T14:30:20;96362.13;;;10.29;60.85
48800;BME280;34611;47.964;7.982;2023-02-23T14:37:24;96351.03;;;10.27;60.90
48800;BME280;34611;47.964;7.982;2023-02-23T14:44:34;96357.91;;;10.28;60.91
48800;BME280;34611;47.964;7.982;2023-02-23T14:51:52;96346.69;;;10.27;60.93
48800;BME280;34611;47.964;7.982;2023-02-23T14:58:54;96355.31;;;10.28;60.80
48800;BME280;34611;47.964;7.982;2023-02-23T15:05:56;96351.03;;;10.27;60.85
48800;BME280;34611;47.964;7.982;2023-02-23T15:12:57;96357.91;;;10.28;60.80
48800;BME280;34611;47.964;7.982;2023-02-23T15:20:04;96358.84;;;10.27;61.01
48800;BME280;34611;47.964;7.982;2023-02-23T15:27:05;96359.69;;;10.27;60.88
48800;BME280;34611;47.964;7.982;2023-02-23T15:34:09;96346.69;;;10.27;60.81
48800;BME280;34611;47.964;7.982;2023-02-23T15:41:19;96353.50;;;10.28;60.90
48800;BME280;34611;47.964;7.982;2023-02-23T15:48:26;96347.50;;;10.28;60.87
48800;BME280;34611;47.964;7.982;2023-02-23T15:55:32;96350.09;;;10.28;61.02
48800;BME280;34611;47.964;7.982;2023-02-23T16:02:34;96346.69;;;10.27;60.88
48800;BME280;34611;47.964;7.982;2023-02-23T16:09:36;96345.72;;;10.28;60.97
48800;BME280;34611;47.964;7.982;2023-02-23T16:16:36;96333.72;;;10.27;61.02
48800;BME280;34611;47.964;7.982;2023-02-23T16:23:40;96342.31;;;10.28;61.08
48800;BME280;34611;47.964;7.982;2023-02-23T16:30:49;96338.06;;;10.27;60.85
48800;BME280;34611;47.964;7.982;2023-02-23T16:38:02;96342.31;;;10.28;61.00
48800;BME280;34611;47.964;7.982;2023-02-23T16:45:03;96345.72;;;10.28;60.91
48800;BME280;34611;47.964;7.982;2023-02-23T16:52:08;96355.31;;;10.28;61.24
48800;BME280;34611;47.964;7.982;2023-02-23T16:59:14;96356.94;;;10.29;60.91
48800;BME280;34611;47.964;7.982;2023-02-23T17:06:15;96364.88;;;10.27;61.01
48800;BME280;34611;47.964;7.982;2023-02-23T17:20:16;96376.91;;;10.28;60.99
48800;BME280;34611;47.964;7.982;2023-02-23T17:27:16;96375.09;;;10.29;61.05
48800;BME280;34611;47.964;7.982;2023-02-23T17:34:16;96382.91;;;10.29;60.96
48800;BME280;34611;47.964;7.982;2023-02-23T17:41:17;96384.69;;;10.28;61.07
48800;BME280;34611;47.964;7.982;2023-02-23T17:48:18;96390.69;;;10.29;61.07
48800;BME280;34611;47.964;7.982;2023-02-23T17:55:18;96389.88;;;10.28;61.03
48800;BME280;34611;47.964;7.982;2023-02-23T18:02:19;96410.66;;;10.28;61.08
48800;BME280;34611;47.964;7.982;2023-02-23T18:09:20;96414.06;;;10.29;61.10
48800;BME280;34611;47.964;7.982;2023-02-23T18:16:20;96422.75;;;10.29;61.15
48800;BME280;34611;47.964;7.982;2023-02-23T18:23:22;96425.94;;;10.80;60.77
48800;BME280;34611;47.964;7.982;2023-02-23T18:30:23;96427.75;;;10.70;61.26
48800;BME280;34611;47.964;7.982;2023-02-23T18:37:23;96436.91;;;10.64;61.45
48800;BME280;34611;47.964;7.982;2023-02-23T18:44:24;96436.22;;;10.62;61.35
48800;BME280;34611;47.964;7.982;2023-02-23T18:51:24;96429.28;;;10.63;61.39
48800;BME280;34611;47.964;7.982;2023-02-23T18:58:25;96429.97;;;10.65;61.03
48800;BME280;34611;47.964;7.982;2023-02-23T19:05:28;96424.91;;;10.63;61.05
48800;BME280;34611;47.964;7.982;2023-02-23T19:12:28;96421.19;;;10.66;61.12
48800;BME280;34611;47.964;7.982;2023-02-23T19:19:28;96421.31;;;10.64;61.05
48800;BME280;34611;47.964;7.982;2023-02-23T19:26:29;96428.97;;;10.66;61.13
48800;BME280;34611;47.964;7.982;2023-02-23T19:33:30;96419.56;;;10.65;61.06
48800;BME280;34611;47.964;7.982;2023-02-23T19:40:30;96416.00;;;10.66;61.10
48800;BME280;34611;47.964;7.982;2023-02-23T19:47:31;96422.84;;;10.67;60.94
48800;BME280;34611;47.964;7.982;2023-02-23T19:54:31;96421.19;;;10.66;60.96
48800;BME280;34611;47.964;7.982;2023-02-23T20:01:33;96425.44;;;10.67;61.03
48800;BME280;34611;47.964;7.982;2023-02-23T20:08:33;96419.94;;;10.70;61.11
48800;BME280;34611;47.964;7.982;2023-02-23T20:15:34;96410.53;;;10.69;61.15
48800;BME280;34611;47.964;7.982;2023-02-23T20:22:34;96413.13;;;10.69;60.92
48800;BME280;34611;47.964;7.982;2023-02-23T20:29:35;96411.47;;;10.68;60.99
48800;BME280;34611;47.964;7.982;2023-02-23T20:36:35;96413.13;;;10.69;60.90
48800;BME280;34611;47.964;7.982;2023-02-23T20:43:36;96422.69;;;10.68;60.92
48800;BME280;34611;47.964;7.982;2023-02-23T20:50:37;96421.88;;;10.68;61.09
48800;BME280;34611;47.964;7.982;2023-02-23T20:57:37;96423.53;;;10.69;61.02
48800;BME280;34611;47.964;7.982;2023-02-23T21:04:37;96422.56;;;10.70;60.95
48800;BME280;34611;47.964;7.982;2023-02-23T21:11:38;96425.28;;;10.68;61.10
48800;BME280;34611;47.964;7.982;2023-02-23T21:18:38;96413.94;;;10.69;61.09
48800;BME280;34611;47.964;7.982;2023-02-23T21:25:38;96418.31;;;10.69;60.89
48800;BME280;34611;47.964;7.982;2023-02-23T21:32:38;96418.31;;;10.69;60.92
48800;BME280;34611;47.964;7.982;2023-02-23T21:39:42;96411.34;;;10.69;61.00
48800;BME280;34611;47.964;7.982;2023-02-23T21:46:45;96412.97;;;10.70;61.15
48800;BME280;34611;47.964;7.982;2023-02-23T21:53:45;96401.75;;;10.70;60.78
48800;BME280;34611;47.964;7.982;2023-02-23T22:00:45;96393.00;;;10.71;61.14
48800;BME280;34611;47.964;7.982;2023-02-23T22:07:47;96386.16;;;10.70;60.97
48800;BME280;34611;47.964;7.982;2023-02-23T22:14:48;96379.34;;;10.69;60.92
48800;BME280;34611;47.964;7.982;2023-02-23T22:21:49;96365.34;;;10.70;60.80
48800;BME280;34611;47.964;7.982;2023-02-23T22:28:49;96370.56;;;10.70;60.87
48800;BME280;34611;47.964;7.982;2023-02-23T22:35:49;96356.75;;;10.69;60.91
48800;BME280;34611;47.964;7.982;2023-02-23T22:42:49;96348.81;;;10.71;61.05
48800;BME280;34611;47.964;7.982;2023-02-23T22:49:50;96338.56;;;10.69;61.06
48800;BME280;34611;47.964;7.982;2023-02-23T22:56:50;96341.97;;;10.70;60.87
48800;BME280;34611;47.964;7.982;2023-02-23T23:03:50;96344.56;;;10.70;61.17
48800;BME280;34611;47.964;7.982;2023-02-23T23:10:51;96339.38;;;10.70;60.96
48800;BME280;34611;47.964;7.982;2023-02-23T23:17:51;96342.78;;;10.70;60.88
48800;BME280;34611;47.964;7.982;2023-02-23T23:24:51;96336.75;;;10.70;60.88
48800;BME280;34611;47.964;7.982;2023-02-23T23:31:51;96328.16;;;10.69;60.93
48800;BME280;34611;47.964;7.982;2023-02-23T23:38:53;96331.56;;;10.70;60.91
48800;BME280;34611;47.964;7.982;2023-02-23T23:45:55;96326.38;;;10.70;61.17
48800;BME280;34611;47.964;7.982;2023-02-23T23:52:56;96317.75;;;10.69;60.95
48800;BME280;34611;47.964;7.982;2023-02-23T23:59:56;96315.16;;;10.69;61.10
